sensor_id;sensor_type;location;lat;lon;timestamp;temperature;humidity
12634;DHT22;6382;48.614;8.880;2022-07-21T00:00:21;18.60;99.90
12634;DHT22;6382;48.614;8.880;2022-07-21T00:02:48;18.50;99.90
12634;DHT22;6382;48.614;8.880;2022-07-21T00:05:15;18.80;99.90
12634;DHT22;6382;48.614;8.880;2022-07-21T00:07:42;21.10;99.90
12634;DHT22;6382;48.614;8.880;2022-07-21T00:10:09;18.70;99.90
12634;DHT22;6382;48.614;8.880;2022-07-21T00:12:36;19.20;99.90
12634;DHT22;6382;48.614;8.880;2022-07-21T00:15:04;18.60;99.90
12634;DHT22;6382;48.614;8.880;2022-07-21T00:17:35;18.60;99.90
12634;DHT22;6382;48.614;8.880;2022-07-21T00:20:02;18.70;99.90
12634;DHT22;6382;48.614;8.880;2022-07-21T00:22:30;18.80;99.90
12634;DHT22;6382;48.614;8.880;2022-07-21T00:24:56;21.80;99.90
12634;DHT22;6382;48.614;8.880;2022-07-21T00:27:24;20.00;99.90
12634;DHT22;6382;48.614;8.880;2022-07-21T00:29:56;18.80;99.90
12634;DHT22;6382;48.614;8.880;2022-07-21T00:32:22;20.10;99.90
12634;DHT22;6382;48.614;8.880;2022-07-21T00:34:49;19.20;99.90
12634;DHT22;6382;48.614;8.880;2022-07-21T00:37:16;19.50;99.90
12634;DHT22;6382;48.614;8.880;2022-07-21T00:39:42;18.80;99.90
12634;DHT22;6382;48.614;8.880;2022-07-21T00:42:19;18.70;99.90
12634;DHT22;6382;48.614;8.880;2022-07-21T00:44:46;18.60;99.90
12634;DHT22;6382;48.614;8.880;2022-07-21T00:47:13;18.70;99.90
12634;DHT22;6382;48.614;8.880;2022-07-21T00:49:39;19.40;99.90
12634;DHT22;6382;48.614;8.880;2022-07-21T00:52:07;18.80;99.90
12634;DHT22;6382;48.614;8.880;2022-07-21T00:54:34;20.10;99.90
12634;DHT22;6382;48.614;8.880;2022-07-21T00:57:01;19.00;99.90
12634;DHT22;6382;48.614;8.880;2022-07-21T00:59:28;17.00;99.90
12634;DHT22;6382;48.614;8.880;2022-07-21T01:01:55;18.90;99.90
12634;DHT22;6382;48.614;8.880;2022-07-21T01:04:22;19.30;99.90
12634;DHT22;6382;48.614;8.880;2022-07-21T01:06:49;18.90;99.90
12634;DHT22;6382;48.614;8.880;2022-07-21T01:09:15;19.30;99.90
12634;DHT22;6382;48.614;8.880;2022-07-21T01:11:42;21.10;99.90
12634;DHT22;6382;48.614;8.880;2022-07-21T01:14:09;19.00;99.90
12634;DHT22;6382;48.614;8.880;2022-07-21T01:16:36;20.60;99.90
12634;DHT22;6382;48.614;8.880;2022-07-21T01:19:04;20.20;99.90
12634;DHT22;6382;48.614;8.880;2022-07-21T01:21:35;19.10;99.90
12634;DHT22;6382;48.614;8.880;2022-07-21T01:24:03;18.90;99.90
12634;DHT22;6382;48.614;8.880;2022-07-21T01:26:30;18.90;99.90
12634;DHT22;6382;48.614;8.880;2022-07-21T01:28:57;20.20;99.90
12634;DHT22;6382;48.614;8.880;2022-07-21T01:31:24;21.40;99.90
12634;DHT22;6382;48.614;8.880;2022-07-21T01:33:51;18.90;99.90
12634;DHT22;6382;48.614;8.880;2022-07-21T01:36:17;20.40;99.90
12634;DHT22;6382;48.614;8.880;2022-07-21T01:38:44;20.50;99.90
12634;DHT22;6382;48.614;8.880;2022-07-21T01:41:34;19.00;99.90
12634;DHT22;6382;48.614;8.880;2022-07-21T01:44:01;21.70;99.90
12634;DHT22;6382;48.614;8.880;2022-07-21T01:46:29;19.40;99.90
12634;DHT22;6382;48.614;8.880;2022-07-21T01:48:56;20.90;99.90
12634;DHT22;6382;48.614;8.880;2022-07-21T01:51:23;19.80;99.90
12634;DHT22;6382;48.614;8.880;2022-07-21T01:53:50;18.70;99.90
12634;DHT22;6382;48.614;8.880;2022-07-21T01:56:20;18.70;99.90
12634;DHT22;6382;48.614;8.880;2022-07-21T01:58:48;18.50;99.90
12634;DHT22;6382;48.614;8.880;2022-07-21T02:01:16;18.50;99.90
12634;DHT22;6382;48.614;8.880;2022-07-21T02:03:44;18.40;99.90
12634;DHT22;6382;48.614;8.880;2022-07-21T02:06:10;20.60;99.90
12634;DHT22;6382;48.614;8.880;2022-07-21T02:08:37;20.60;99.90
12634;DHT22;6382;48.614;8.880;2022-07-21T02:11:04;20.90;99.90
12634;DHT22;6382;48.614;8.880;2022-07-21T02:13:31;18.40;99.90
12634;DHT22;6382;48.614;8.880;2022-07-21T02:15:58;18.40;99.90
12634;DHT22;6382;48.614;8.880;2022-07-21T02:18:25;18.50;99.90
12634;DHT22;6382;48.614;8.880;2022-07-21T02:20:51;19.30;99.90
12634;DHT22;6382;48.614;8.880;2022-07-21T02:23:18;18.50;99.90
12634;DHT22;6382;48.614;8.880;2022-07-21T02:25:45;19.70;99.90
12634;DHT22;6382;48.614;8.880;2022-07-21T02:28:12;20.80;99.90
12634;DHT22;6382;48.614;8.880;2022-07-21T02:30:39;18.40;99.90
12634;DHT22;6382;48.614;8.880;2022-07-21T02:33:06;18.40;99.90
12634;DHT22;6382;48.614;8.880;2022-07-21T02:35:33;19.50;99.90
12634;DHT22;6382;48.614;8.880;2022-07-21T02:37:59;19.80;99.90
12634;DHT22;6382;48.614;8.880;2022-07-21T02:40:26;20.50;99.90
12634;DHT22;6382;48.614;8.880;2022-07-21T02:42:53;18.40;99.90
12634;DHT22;6382;48.614;8.880;2022-07-21T02:45:19;20.50;99.90
12634;DHT22;6382;48.614;8.880;2022-07-21T02:47:54;18.40;99.90
12634;DHT22;6382;48.614;8.880;2022-07-21T02:50:23;18.40;99.90
12634;DHT22;6382;48.614;8.880;2022-07-21T02:52:50;20.10;99.90
12634;DHT22;6382;48.614;8.880;2022-07-21T02:55:16;18.60;99.90
12634;DHT22;6382;48.614;8.880;2022-07-21T02:57:43;18.50;99.90
12634;DHT22;6382;48.614;8.880;2022-07-21T03:00:10;21.10;99.90
12634;DHT22;6382;48.614;8.880;2022-07-21T03:02:38;18.50;99.90
12634;DHT22;6382;48.614;8.880;2022-07-21T03:05:05;18.50;99.90
12634;DHT22;6382;48.614;8.880;2022-07-21T03:07:32;18.50;99.90
12634;DHT22;6382;48.614;8.880;2022-07-21T03:09:59;18.60;99.90
12634;DHT22;6382;48.614;8.880;2022-07-21T03:12:25;19.50;99.90
12634;DHT22;6382;48.614;8.880;2022-07-21T03:14:52;18.50;99.90
12634;DHT22;6382;48.614;8.880;2022-07-21T03:17:19;19.70;99.90
12634;DHT22;6382;48.614;8.880;2022-07-21T03:19:46;20.40;99.90
12634;DHT22;6382;48.614;8.880;2022-07-21T03:22:12;18.50;99.90
12634;DHT22;6382;48.614;8.880;2022-07-21T03:24:39;19.80;99.90
12634;DHT22;6382;48.614;8.880;2022-07-21T03:27:06;21.20;99.90
12634;DHT22;6382;48.614;8.880;2022-07-21T03:29:33;18.50;99.90
12634;DHT22;6382;48.614;8.880;2022-07-21T03:32:00;20.20;99.90
12634;DHT22;6382;48.614;8.880;2022-07-21T03:34:27;18.50;99.90
12634;DHT22;6382;48.614;8.880;2022-07-21T03:36:53;18.60;99.90
12634;DHT22;6382;48.614;8.880;2022-07-21T03:39:20;18.40;99.90
12634;DHT22;6382;48.614;8.880;2022-07-21T03:41:47;20.00;99.90
12634;DHT22;6382;48.614;8.880;2022-07-21T03:44:13;21.10;99.90
12634;DHT22;6382;48.614;8.880;2022-07-21T03:46:40;19.60;99.90
12634;DHT22;6382;48.614;8.880;2022-07-21T03:49:07;19.80;99.90
12634;DHT22;6382;48.614;8.880;2022-07-21T03:51:33;19.80;99.90
12634;DHT22;6382;48.614;8.880;2022-07-21T03:54:00;18.40;99.90
12634;DHT22;6382;48.614;8.880;2022-07-21T03:56:28;18.40;99.90
12634;DHT22;6382;48.614;8.880;2022-07-21T03:58:55;18.40;99.90
12634;DHT22;6382;48.614;8.880;2022-07-21T04:01:22;18.40;99.90
12634;DHT22;6382;48.614;8.880;2022-07-21T04:03:49;18.30;99.90
12634;DHT22;6382;48.614;8.880;2022-07-21T04:06:15;19.90;99.90
12634;DHT22;6382;48.614;8.880;2022-07-21T04:08:42;18.20;99.90
12634;DHT22;6382;48.614;8.880;2022-07-21T04:11:09;19.50;99.90
12634;DHT22;6382;48.614;8.880;2022-07-21T04:13:36;18.30;99.90
12634;DHT22;6382;48.614;8.880;2022-07-21T04:16:03;18.60;99.90
12634;DHT22;6382;48.614;8.880;2022-07-21T04:18:30;18.20;99.90
12634;DHT22;6382;48.614;8.880;2022-07-21T04:20:56;19.20;99.90
12634;DHT22;6382;48.614;8.880;2022-07-21T04:23:23;20.80;99.90
12634;DHT22;6382;48.614;8.880;2022-07-21T04:25:50;18.40;99.90
12634;DHT22;6382;48.614;8.880;2022-07-21T04:28:16;18.50;99.90
12634;DHT22;6382;48.614;8.880;2022-07-21T04:30:43;18.60;99.90
12634;DHT22;6382;48.614;8.880;2022-07-21T04:33:10;18.60;99.90
12634;DHT22;6382;48.614;8.880;2022-07-21T04:35:37;18.60;99.90
12634;DHT22;6382;48.614;8.880;2022-07-21T04:38:03;18.70;99.90
12634;DHT22;6382;48.614;8.880;2022-07-21T04:40:30;18.70;99.90
12634;DHT22;6382;48.614;8.880;2022-07-21T04:42:57;20.60;99.90
12634;DHT22;6382;48.614;8.880;2022-07-21T04:45:24;21.60;99.90
12634;DHT22;6382;48.614;8.880;2022-07-21T04:47:52;20.10;99.90
12634;DHT22;6382;48.614;8.880;2022-07-21T04:50:22;19.40;99.90
12634;DHT22;6382;48.614;8.880;2022-07-21T04:52:49;19.40;99.90
12634;DHT22;6382;48.614;8.880;2022-07-21T04:55:16;20.60;99.90
12634;DHT22;6382;48.614;8.880;2022-07-21T04:57:44;19.50;99.90
12634;DHT22;6382;48.614;8.880;2022-07-21T05:00:12;20.30;99.90
12634;DHT22;6382;48.614;8.880;2022-07-21T05:02:39;19.40;99.90
12634;DHT22;6382;48.614;8.880;2022-07-21T05:05:06;20.90;99.90
12634;DHT22;6382;48.614;8.880;2022-07-21T05:07:33;19.40;99.90
12634;DHT22;6382;48.614;8.880;2022-07-21T05:10:04;20.70;99.90
12634;DHT22;6382;48.614;8.880;2022-07-21T05:12:31;19.50;99.90
12634;DHT22;6382;48.614;8.880;2022-07-21T05:14:58;20.70;99.90
12634;DHT22;6382;48.614;8.880;2022-07-21T05:17:25;20.60;99.90
12634;DHT22;6382;48.614;8.880;2022-07-21T05:19:51;21.20;99.90
12634;DHT22;6382;48.614;8.880;2022-07-21T05:22:25;19.30;99.90
12634;DHT22;6382;48.614;8.880;2022-07-21T05:24:51;21.60;99.90
12634;DHT22;6382;48.614;8.880;2022-07-21T05:27:18;19.60;99.90
12634;DHT22;6382;48.614;8.880;2022-07-21T05:29:45;20.00;99.90
12634;DHT22;6382;48.614;8.880;2022-07-21T05:32:11;19.90;99.90
12634;DHT22;6382;48.614;8.880;2022-07-21T05:34:38;20.20;99.90
12634;DHT22;6382;48.614;8.880;2022-07-21T05:37:05;21.80;99.90
12634;DHT22;6382;48.614;8.880;2022-07-21T05:39:31;20.50;99.90
12634;DHT22;6382;48.614;8.880;2022-07-21T05:41:58;21.90;99.90
12634;DHT22;6382;48.614;8.880;2022-07-21T05:44:25;21.00;99.90
12634;DHT22;6382;48.614;8.880;2022-07-21T05:46:52;20.60;99.90
12634;DHT22;6382;48.614;8.880;2022-07-21T05:49:18;22.00;99.90
12634;DHT22;6382;48.614;8.880;2022-07-21T05:51:45;20.60;99.90
12634;DHT22;6382;48.614;8.880;2022-07-21T05:54:12;22.70;99.90
12634;DHT22;6382;48.614;8.880;2022-07-21T05:56:38;21.90;99.90
12634;DHT22;6382;48.614;8.880;2022-07-21T05:59:05;21.80;99.90
12634;DHT22;6382;48.614;8.880;2022-07-21T06:01:32;20.70;99.90
12634;DHT22;6382;48.614;8.880;2022-07-21T06:03:59;20.70;99.90
12634;DHT22;6382;48.614;8.880;2022-07-21T06:06:25;22.40;99.90
12634;DHT22;6382;48.614;8.880;2022-07-21T06:08:52;22.50;99.90
12634;DHT22;6382;48.614;8.880;2022-07-21T06:11:20;20.90;99.90
12634;DHT22;6382;48.614;8.880;2022-07-21T06:13:47;22.70;99.90
12634;DHT22;6382;48.614;8.880;2022-07-21T06:16:14;21.30;99.90
12634;DHT22;6382;48.614;8.880;2022-07-21T06:18:41;22.20;99.90
12634;DHT22;6382;48.614;8.880;2022-07-21T06:21:07;22.30;99.90
12634;DHT22;6382;48.614;8.880;2022-07-21T06:23:34;21.20;99.90
12634;DHT22;6382;48.614;8.880;2022-07-21T06:26:01;23.40;99.90
12634;DHT22;6382;48.614;8.880;2022-07-21T06:28:28;21.20;99.90
12634;DHT22;6382;48.614;8.880;2022-07-21T06:30:54;21.20;99.90
12634;DHT22;6382;48.614;8.880;2022-07-21T06:33:22;21.30;99.90
12634;DHT22;6382;48.614;8.880;2022-07-21T06:35:48;21.30;99.90
12634;DHT22;6382;48.614;8.880;2022-07-21T06:38:15;22.10;99.90
12634;DHT22;6382;48.614;8.880;2022-07-21T06:40:42;22.90;99.90
12634;DHT22;6382;48.614;8.880;2022-07-21T06:43:09;22.40;99.90
12634;DHT22;6382;48.614;8.880;2022-07-21T06:45:55;23.80;99.90
12634;DHT22;6382;48.614;8.880;2022-07-21T06:48:22;23.30;99.90
12634;DHT22;6382;48.614;8.880;2022-07-21T06:50:49;22.00;99.90
12634;DHT22;6382;48.614;8.880;2022-07-21T06:53:16;22.80;99.90
12634;DHT22;6382;48.614;8.880;2022-07-21T06:55:43;21.50;99.90
12634;DHT22;6382;48.614;8.880;2022-07-21T06:58:14;23.40;99.90
12634;DHT22;6382;48.614;8.880;2022-07-21T07:00:43;21.80;99.90
12634;DHT22;6382;48.614;8.880;2022-07-21T07:03:10;21.80;99.90
12634;DHT22;6382;48.614;8.880;2022-07-21T07:05:36;21.90;99.90
12634;DHT22;6382;48.614;8.880;2022-07-21T07:08:03;22.00;99.90
12634;DHT22;6382;48.614;8.880;2022-07-21T07:10:36;22.10;99.90
12634;DHT22;6382;48.614;8.880;2022-07-21T07:13:03;22.30;99.90
12634;DHT22;6382;48.614;8.880;2022-07-21T07:15:50;22.40;99.90
12634;DHT22;6382;48.614;8.880;2022-07-21T07:18:16;22.40;99.90
12634;DHT22;6382;48.614;8.880;2022-07-21T07:20:43;24.50;99.90
12634;DHT22;6382;48.614;8.880;2022-07-21T07:23:10;23.00;99.90
12634;DHT22;6382;48.614;8.880;2022-07-21T07:25:37;23.30;99.90
12634;DHT22;6382;48.614;8.880;2022-07-21T07:28:04;22.70;99.90
12634;DHT22;6382;48.614;8.880;2022-07-21T07:30:31;22.60;99.90
12634;DHT22;6382;48.614;8.880;2022-07-21T07:32:58;22.40;99.90
12634;DHT22;6382;48.614;8.880;2022-07-21T07:35:25;22.40;99.90
12634;DHT22;6382;48.614;8.880;2022-07-21T07:37:51;22.30;99.90
12634;DHT22;6382;48.614;8.880;2022-07-21T07:40:19;24.20;99.90
12634;DHT22;6382;48.614;8.880;2022-07-21T07:42:46;23.20;99.90
12634;DHT22;6382;48.614;8.880;2022-07-21T07:45:13;22.80;99.90
12634;DHT22;6382;48.614;8.880;2022-07-21T07:47:40;22.80;99.90
12634;DHT22;6382;48.614;8.880;2022-07-21T07:50:07;22.70;99.90
12634;DHT22;6382;48.614;8.880;2022-07-21T07:52:38;22.80;99.90
12634;DHT22;6382;48.614;8.880;2022-07-21T07:55:05;23.80;99.90
12634;DHT22;6382;48.614;8.880;2022-07-21T07:57:34;22.90;99.90
12634;DHT22;6382;48.614;8.880;2022-07-21T08:00:03;22.90;99.90
12634;DHT22;6382;48.614;8.880;2022-07-21T08:02:50;22.80;99.90
12634;DHT22;6382;48.614;8.880;2022-07-21T08:05:17;23.80;99.90
12634;DHT22;6382;48.614;8.880;2022-07-21T08:07:44;23.00;99.90
12634;DHT22;6382;48.614;8.880;2022-07-21T08:10:11;24.30;99.90
12634;DHT22;6382;48.614;8.880;2022-07-21T08:12:58;22.90;99.90
12634;DHT22;6382;48.614;8.880;2022-07-21T08:15:32;24.80;99.90
12634;DHT22;6382;48.614;8.880;2022-07-21T08:17:59;23.10;99.90
12634;DHT22;6382;48.614;8.880;2022-07-21T08:20:25;24.70;99.90
12634;DHT22;6382;48.614;8.880;2022-07-21T08:22:52;23.30;99.90
12634;DHT22;6382;48.614;8.880;2022-07-21T08:25:19;23.30;99.90
12634;DHT22;6382;48.614;8.880;2022-07-21T08:27:46;23.30;99.90
12634;DHT22;6382;48.614;8.880;2022-07-21T08:30:13;24.80;99.90
12634;DHT22;6382;48.614;8.880;2022-07-21T08:32:40;24.90;99.90
12634;DHT22;6382;48.614;8.880;2022-07-21T08:35:07;23.30;99.90
12634;DHT22;6382;48.614;8.880;2022-07-21T08:37:35;23.30;99.90
12634;DHT22;6382;48.614;8.880;2022-07-21T08:40:03;23.40;99.90
12634;DHT22;6382;48.614;8.880;2022-07-21T08:42:30;23.50;99.90
12634;DHT22;6382;48.614;8.880;2022-07-21T08:44:57;23.30;99.90
12634;DHT22;6382;48.614;8.880;2022-07-21T08:47:27;23.30;99.90
12634;DHT22;6382;48.614;8.880;2022-07-21T08:49:54;23.20;99.90
12634;DHT22;6382;48.614;8.880;2022-07-21T08:52:21;23.10;99.90
12634;DHT22;6382;48.614;8.880;2022-07-21T08:54:47;23.10;99.90
12634;DHT22;6382;48.614;8.880;2022-07-21T08:57:14;24.70;99.90
12634;DHT22;6382;48.614;8.880;2022-07-21T08:59:43;22.70;99.90
12634;DHT22;6382;48.614;8.880;2022-07-21T09:02:26;23.60;99.90
12634;DHT22;6382;48.614;8.880;2022-07-21T09:04:54;22.60;99.90
12634;DHT22;6382;48.614;8.880;2022-07-21T09:07:21;24.70;99.90
12634;DHT22;6382;48.614;8.880;2022-07-21T09:12:22;22.60;99.90
12634;DHT22;6382;48.614;8.880;2022-07-21T09:14:48;22.60;99.90
12634;DHT22;6382;48.614;8.880;2022-07-21T09:17:16;23.10;99.90
12634;DHT22;6382;48.614;8.880;2022-07-21T09:19:45;24.80;99.90
12634;DHT22;6382;48.614;8.880;2022-07-21T09:22:14;22.60;99.90
12634;DHT22;6382;48.614;8.880;2022-07-21T09:24:40;22.70;99.90
12634;DHT22;6382;48.614;8.880;2022-07-21T09:27:11;22.80;99.90
12634;DHT22;6382;48.614;8.880;2022-07-21T09:32:12;23.80;99.90
12634;DHT22;6382;48.614;8.880;2022-07-21T09:34:39;23.50;99.90
12634;DHT22;6382;48.614;8.880;2022-07-21T09:37:07;23.80;99.90
12634;DHT22;6382;48.614;8.880;2022-07-21T09:39:43;24.10;99.90
12634;DHT22;6382;48.614;8.880;2022-07-21T09:42:24;24.30;99.90
12634;DHT22;6382;48.614;8.880;2022-07-21T09:44:56;24.60;99.90
12634;DHT22;6382;48.614;8.880;2022-07-21T09:47:24;24.90;99.90
12634;DHT22;6382;48.614;8.880;2022-07-21T09:49:52;25.10;99.90
12634;DHT22;6382;48.614;8.880;2022-07-21T09:52:39;25.10;99.90
12634;DHT22;6382;48.614;8.880;2022-07-21T09:55:07;25.20;99.90
12634;DHT22;6382;48.614;8.880;2022-07-21T09:57:34;25.10;99.90
12634;DHT22;6382;48.614;8.880;2022-07-21T10:00:06;25.00;99.90
12634;DHT22;6382;48.614;8.880;2022-07-21T10:02:43;24.90;99.90
12634;DHT22;6382;48.614;8.880;2022-07-21T10:05:14;24.70;99.90
12634;DHT22;6382;48.614;8.880;2022-07-21T10:07:42;24.60;99.90
12634;DHT22;6382;48.614;8.880;2022-07-21T10:10:10;24.40;99.90
12634;DHT22;6382;48.614;8.880;2022-07-21T10:12:38;24.10;99.90
12634;DHT22;6382;48.614;8.880;2022-07-21T10:15:05;23.80;99.90
12634;DHT22;6382;48.614;8.880;2022-07-21T10:17:32;23.60;99.90
12634;DHT22;6382;48.614;8.880;2022-07-21T10:25:44;23.80;99.90
12634;DHT22;6382;48.614;8.880;2022-07-21T10:28:19;23.80;99.90
12634;DHT22;6382;48.614;8.880;2022-07-21T10:30:54;23.80;99.90
12634;DHT22;6382;48.614;8.880;2022-07-21T10:33:23;24.80;99.90
12634;DHT22;6382;48.614;8.880;2022-07-21T10:36:08;24.10;99.90
12634;DHT22;6382;48.614;8.880;2022-07-21T10:38:37;24.40;99.90
12634;DHT22;6382;48.614;8.880;2022-07-21T10:41:04;24.70;99.90
12634;DHT22;6382;48.614;8.880;2022-07-21T10:45:58;25.20;99.90
12634;DHT22;6382;48.614;8.880;2022-07-21T10:53:35;25.70;99.90
12634;DHT22;6382;48.614;8.880;2022-07-21T10:56:02;25.70;99.90
12634;DHT22;6382;48.614;8.880;2022-07-21T10:58:32;25.80;99.90
12634;DHT22;6382;48.614;8.880;2022-07-21T11:01:18;25.90;99.90
12634;DHT22;6382;48.614;8.880;2022-07-21T11:03:48;25.90;99.90
12634;DHT22;6382;48.614;8.880;2022-07-21T11:06:31;25.80;99.90
12634;DHT22;6382;48.614;8.880;2022-07-21T11:11:29;26.00;99.90
12634;DHT22;6382;48.614;8.880;2022-07-21T11:14:13;28.40;99.90
12634;DHT22;6382;48.614;8.880;2022-07-21T11:21:59;25.80;99.90
12634;DHT22;6382;48.614;8.880;2022-07-21T11:24:27;25.80;99.90
12634;DHT22;6382;48.614;8.880;2022-07-21T11:26:54;26.00;99.90
12634;DHT22;6382;48.614;8.880;2022-07-21T11:29:22;26.30;99.90
12634;DHT22;6382;48.614;8.880;2022-07-21T11:31:49;26.60;99.90
12634;DHT22;6382;48.614;8.880;2022-07-21T11:34:17;26.70;99.90
12634;DHT22;6382;48.614;8.880;2022-07-21T11:36:44;26.90;99.90
12634;DHT22;6382;48.614;8.880;2022-07-21T11:39:12;26.50;99.90
12634;DHT22;6382;48.614;8.880;2022-07-21T11:41:39;26.10;99.90
12634;DHT22;6382;48.614;8.880;2022-07-21T11:44:10;25.80;99.90
12634;DHT22;6382;48.614;8.880;2022-07-21T11:46:44;25.60;99.90
12634;DHT22;6382;48.614;8.880;2022-07-21T11:49:11;25.60;99.90
12634;DHT22;6382;48.614;8.880;2022-07-21T11:51:37;25.60;99.90
12634;DHT22;6382;48.614;8.880;2022-07-21T11:56:51;25.90;99.90
12634;DHT22;6382;48.614;8.880;2022-07-21T11:59:18;26.00;99.90
12634;DHT22;6382;48.614;8.880;2022-07-21T12:04:25;25.90;99.90
12634;DHT22;6382;48.614;8.880;2022-07-21T12:06:52;27.90;99.90
12634;DHT22;6382;48.614;8.880;2022-07-21T12:09:19;26.20;99.90
12634;DHT22;6382;48.614;8.880;2022-07-21T12:11:46;26.20;99.90
12634;DHT22;6382;48.614;8.880;2022-07-21T12:14:13;25.90;99.90
12634;DHT22;6382;48.614;8.880;2022-07-21T12:16:47;25.70;99.90
12634;DHT22;6382;48.614;8.880;2022-07-21T12:19:15;25.70;99.90
12634;DHT22;6382;48.614;8.880;2022-07-21T12:24:13;25.90;99.90
12634;DHT22;6382;48.614;8.880;2022-07-21T12:26:40;25.80;99.90
12634;DHT22;6382;48.614;8.880;2022-07-21T12:29:07;25.80;99.90
12634;DHT22;6382;48.614;8.880;2022-07-21T12:31:34;26.00;99.90
12634;DHT22;6382;48.614;8.880;2022-07-21T12:34:14;26.10;99.90
12634;DHT22;6382;48.614;8.880;2022-07-21T12:36:57;26.30;99.90
12634;DHT22;6382;48.614;8.880;2022-07-21T12:39:25;26.30;99.90
12634;DHT22;6382;48.614;8.880;2022-07-21T12:42:12;26.20;99.90
12634;DHT22;6382;48.614;8.880;2022-07-21T12:44:53;26.10;99.90
12634;DHT22;6382;48.614;8.880;2022-07-21T12:47:20;26.00;99.90
12634;DHT22;6382;48.614;8.880;2022-07-21T12:49:54;25.80;99.90
12634;DHT22;6382;48.614;8.880;2022-07-21T12:52:36;25.80;99.90
12634;DHT22;6382;48.614;8.880;2022-07-21T12:55:03;25.90;99.90
12634;DHT22;6382;48.614;8.880;2022-07-21T12:57:30;26.00;99.90
12634;DHT22;6382;48.614;8.880;2022-07-21T12:59:58;26.00;99.90
12634;DHT22;6382;48.614;8.880;2022-07-21T13:02:25;26.00;99.90
12634;DHT22;6382;48.614;8.880;2022-07-21T13:04:53;25.90;99.90
12634;DHT22;6382;48.614;8.880;2022-07-21T13:07:20;25.90;99.90
12634;DHT22;6382;48.614;8.880;2022-07-21T13:09:46;25.90;99.90
12634;DHT22;6382;48.614;8.880;2022-07-21T13:12:13;26.00;99.90
12634;DHT22;6382;48.614;8.880;2022-07-21T13:14:40;26.10;99.90
12634;DHT22;6382;48.614;8.880;2022-07-21T13:17:08;26.20;99.90
12634;DHT22;6382;48.614;8.880;2022-07-21T13:19:35;26.40;99.90
12634;DHT22;6382;48.614;8.880;2022-07-21T13:22:03;26.60;99.90
12634;DHT22;6382;48.614;8.880;2022-07-21T13:24:29;26.70;99.90
12634;DHT22;6382;48.614;8.880;2022-07-21T13:26:56;26.50;99.90
12634;DHT22;6382;48.614;8.880;2022-07-21T13:29:23;26.30;99.90
12634;DHT22;6382;48.614;8.880;2022-07-21T13:31:49;26.20;99.40
12634;DHT22;6382;48.614;8.880;2022-07-21T13:34:16;26.30;99.90
12634;DHT22;6382;48.614;8.880;2022-07-21T13:36:43;26.60;99.90
12634;DHT22;6382;48.614;8.880;2022-07-21T13:39:11;26.70;98.60
12634;DHT22;6382;48.614;8.880;2022-07-21T13:41:57;26.70;98.70
12634;DHT22;6382;48.614;8.880;2022-07-21T13:44:44;26.70;99.90
12634;DHT22;6382;48.614;8.880;2022-07-21T13:47:11;26.80;99.90
12634;DHT22;6382;48.614;8.880;2022-07-21T13:49:38;26.70;99.00
12634;DHT22;6382;48.614;8.880;2022-07-21T13:52:05;26.60;99.30
12634;DHT22;6382;48.614;8.880;2022-07-21T13:54:32;26.60;99.90
12634;DHT22;6382;48.614;8.880;2022-07-21T13:56:59;26.70;99.20
12634;DHT22;6382;48.614;8.880;2022-07-21T13:59:26;26.90;99.90
12634;DHT22;6382;48.614;8.880;2022-07-21T14:01:53;27.00;99.60
12634;DHT22;6382;48.614;8.880;2022-07-21T14:04:20;27.20;98.00
12634;DHT22;6382;48.614;8.880;2022-07-21T14:06:46;27.10;97.50
12634;DHT22;6382;48.614;8.880;2022-07-21T14:09:15;27.10;98.30
12634;DHT22;6382;48.614;8.880;2022-07-21T14:11:42;27.10;98.50
12634;DHT22;6382;48.614;8.880;2022-07-21T14:14:09;27.10;98.00
12634;DHT22;6382;48.614;8.880;2022-07-21T14:16:37;26.90;96.50
12634;DHT22;6382;48.614;8.880;2022-07-21T14:19:04;26.80;98.40
12634;DHT22;6382;48.614;8.880;2022-07-21T14:21:30;26.80;98.30
12634;DHT22;6382;48.614;8.880;2022-07-21T14:23:57;27.00;99.00
12634;DHT22;6382;48.614;8.880;2022-07-21T14:26:43;27.10;99.10
12634;DHT22;6382;48.614;8.880;2022-07-21T14:29:11;27.30;99.90
12634;DHT22;6382;48.614;8.880;2022-07-21T14:31:37;27.50;99.70
12634;DHT22;6382;48.614;8.880;2022-07-21T14:34:04;27.60;98.30
12634;DHT22;6382;48.614;8.880;2022-07-21T14:36:31;27.60;96.90
12634;DHT22;6382;48.614;8.880;2022-07-21T14:38:58;27.50;96.80
12634;DHT22;6382;48.614;8.880;2022-07-21T14:41:24;27.30;97.90
12634;DHT22;6382;48.614;8.880;2022-07-21T14:43:51;27.00;98.70
12634;DHT22;6382;48.614;8.880;2022-07-21T14:46:18;26.80;99.80
12634;DHT22;6382;48.614;8.880;2022-07-21T14:48:45;26.60;99.90
12634;DHT22;6382;48.614;8.880;2022-07-21T14:51:12;24.50;99.10
12634;DHT22;6382;48.614;8.880;2022-07-21T14:53:38;26.20;98.60
12634;DHT22;6382;48.614;8.880;2022-07-21T14:56:05;25.00;99.10
12634;DHT22;6382;48.614;8.880;2022-07-21T14:58:32;26.20;99.90
12634;DHT22;6382;48.614;8.880;2022-07-21T15:00:58;26.10;99.90
12634;DHT22;6382;48.614;8.880;2022-07-21T15:03:25;26.10;99.90
12634;DHT22;6382;48.614;8.880;2022-07-21T15:05:52;26.20;99.90
12634;DHT22;6382;48.614;8.880;2022-07-21T15:08:19;26.30;99.90
12634;DHT22;6382;48.614;8.880;2022-07-21T15:10:46;26.50;99.90
12634;DHT22;6382;48.614;8.880;2022-07-21T15:13:13;26.50;99.80
12634;DHT22;6382;48.614;8.880;2022-07-21T15:15:40;26.40;98.90
12634;DHT22;6382;48.614;8.880;2022-07-21T15:18:07;26.30;99.40
12634;DHT22;6382;48.614;8.880;2022-07-21T15:20:34;26.20;99.90
12634;DHT22;6382;48.614;8.880;2022-07-21T15:23:01;26.20;99.90
12634;DHT22;6382;48.614;8.880;2022-07-21T15:25:28;26.20;99.90
12634;DHT22;6382;48.614;8.880;2022-07-21T15:27:54;26.10;99.90
12634;DHT22;6382;48.614;8.880;2022-07-21T15:30:21;26.10;99.90
12634;DHT22;6382;48.614;8.880;2022-07-21T15:32:48;25.90;99.90
12634;DHT22;6382;48.614;8.880;2022-07-21T15:35:14;26.00;99.90
12634;DHT22;6382;48.614;8.880;2022-07-21T15:37:41;26.00;99.90
12634;DHT22;6382;48.614;8.880;2022-07-21T15:40:08;26.00;99.90
12634;DHT22;6382;48.614;8.880;2022-07-21T15:42:35;26.00;99.90
12634;DHT22;6382;48.614;8.880;2022-07-21T15:45:05;26.00;99.90
12634;DHT22;6382;48.614;8.880;2022-07-21T15:47:32;26.10;99.90
12634;DHT22;6382;48.614;8.880;2022-07-21T15:49:59;26.00;99.90
12634;DHT22;6382;48.614;8.880;2022-07-21T15:52:25;26.20;99.90
12634;DHT22;6382;48.614;8.880;2022-07-21T15:54:52;26.40;99.90
12634;DHT22;6382;48.614;8.880;2022-07-21T15:57:28;26.70;99.90
12634;DHT22;6382;48.614;8.880;2022-07-21T15:59:55;26.90;99.80
12634;DHT22;6382;48.614;8.880;2022-07-21T16:02:21;27.10;99.40
12634;DHT22;6382;48.614;8.880;2022-07-21T16:04:48;27.00;99.90
12634;DHT22;6382;48.614;8.880;2022-07-21T16:07:15;26.70;99.90
12634;DHT22;6382;48.614;8.880;2022-07-21T16:09:42;26.50;99.90
12634;DHT22;6382;48.614;8.880;2022-07-21T16:12:10;26.40;99.90
12634;DHT22;6382;48.614;8.880;2022-07-21T16:14:36;26.30;99.90
12634;DHT22;6382;48.614;8.880;2022-07-21T16:17:03;26.30;99.90
12634;DHT22;6382;48.614;8.880;2022-07-21T16:19:30;26.20;99.90
12634;DHT22;6382;48.614;8.880;2022-07-21T16:21:57;26.10;99.90
12634;DHT22;6382;48.614;8.880;2022-07-21T16:24:25;26.10;99.90